sensor_id;sensor_type;location;lat;lon;timestamp;pressure;altitude;pressure_sealevel;temperature;humidity
65880;BME280;52661;51.364;6.054;2024-02-16T00:00:43;100671.84;;;12.29;100.00
65880;BME280;52661;51.364;6.054;2024-02-16T00:03:09;100668.38;;;12.25;100.00
65880;BME280;52661;51.364;6.054;2024-02-16T00:05:35;100667.59;;;12.24;100.00
65880;BME280;52661;51.364;6.054;2024-02-16T00:08:01;100669.53;;;12.24;100.00
65880;BME280;52661;51.364;6.054;2024-02-16T00:10:28;100678.09;;;12.26;100.00
65880;BME280;52661;51.364;6.054;2024-02-16T00:12:53;100673.38;;;12.26;100.00
65880;BME280;52661;51.364;6.054;2024-02-16T00:15:19;100679.63;;;12.27;100.00
65880;BME280;52661;51.364;6.054;2024-02-16T00:17:44;100673.38;;;12.26;100.00
65880;BME280;52661;51.364;6.054;2024-02-16T00:20:09;100664.88;;;12.24;100.00
65880;BME280;52661;51.364;6.054;2024-02-16T00:22:37;100668.72;;;12.27;100.00
65880;BME280;52661;51.364;6.054;2024-02-16T00:25:03;100667.97;;;12.23;100.00
65880;BME280;52661;51.364;6.054;2024-02-16T00:27:29;100667.22;;;12.22;100.00
65880;BME280;52661;51.364;6.054;2024-02-16T00:29:54;100673.84;;;12.21;100.00
65880;BME280;52661;51.364;6.054;2024-02-16T00:32:19;100668.00;;;12.19;100.00
65880;BME280;52661;51.364;6.054;2024-02-16T00:34:45;100667.25;;;12.19;100.00
65880;BME280;52661;51.364;6.054;2024-02-16T00:37:11;100668.03;;;12.16;100.00
65880;BME280;52661;51.364;6.054;2024-02-16T00:39:39;100668.44;;;12.14;100.00
65880;BME280;52661;51.364;6.054;2024-02-16T00:42:07;100666.53;;;12.11;100.00
65880;BME280;52661;51.364;6.054;2024-02-16T00:44:33;100665.34;;;12.12;100.00
65880;BME280;52661;51.364;6.054;2024-02-16T00:46:58;100666.91;;;12.10;100.00
65880;BME280;52661;51.364;6.054;2024-02-16T00:49:24;100658.38;;;12.11;100.00
65880;BME280;52661;51.364;6.054;2024-02-16T00:51:49;100657.19;;;12.12;100.00
65880;BME280;52661;51.364;6.054;2024-02-16T00:54:16;100658.72;;;12.13;100.00
65880;BME280;52661;51.364;6.054;2024-02-16T00:56:42;100656.78;;;12.14;100.00
65880;BME280;52661;51.364;6.054;2024-02-16T00:59:07;100659.91;;;12.12;100.00
65880;BME280;52661;51.364;6.054;2024-02-16T01:01:35;100657.16;;;12.16;100.00
65880;BME280;52661;51.364;6.054;2024-02-16T01:04:01;100645.91;;;12.14;100.00
65880;BME280;52661;51.364;6.054;2024-02-16T01:06:26;100646.31;;;12.09;100.00
65880;BME280;52661;51.364;6.054;2024-02-16T01:08:51;100643.97;;;12.14;100.00
65880;BME280;52661;51.364;6.054;2024-02-16T01:11:17;100654.09;;;12.10;100.00
65880;BME280;52661;51.364;6.054;2024-02-16T01:13:42;100647.84;;;12.13;100.00
65880;BME280;52661;51.364;6.054;2024-02-16T01:16:08;100646.69;;;12.14;100.00
65880;BME280;52661;51.364;6.054;2024-02-16T01:18:35;100649.00;;;12.12;100.00
65880;BME280;52661;51.364;6.054;2024-02-16T01:21:01;100660.66;;;12.16;100.00
65880;BME280;52661;51.364;6.054;2024-02-16T01:23:28;100654.03;;;12.17;100.00
65880;BME280;52661;51.364;6.054;2024-02-16T01:25:53;100652.91;;;12.15;100.00
65880;BME280;52661;51.364;6.054;2024-02-16T01:28:18;100652.09;;;12.18;100.00
65880;BME280;52661;51.364;6.054;2024-02-16T01:30:44;100657.53;;;12.18;100.00
65880;BME280;52661;51.364;6.054;2024-02-16T01:33:09;100654.41;;;12.19;100.00
65880;BME280;52661;51.364;6.054;2024-02-16T01:35:35;100657.94;;;12.16;100.00
65880;BME280;52661;51.364;6.054;2024-02-16T01:38:01;100654.44;;;12.16;100.00
65880;BME280;52661;51.364;6.054;2024-02-16T01:40:27;100654.84;;;12.14;100.00
65880;BME280;52661;51.364;6.054;2024-02-16T01:42:53;100662.63;;;12.12;100.00
65880;BME280;52661;51.364;6.054;2024-02-16T01:45:18;100654.84;;;12.14;100.00
65880;BME280;52661;51.364;6.054;2024-02-16T01:47:44;100654.50;;;12.05;100.00
65880;BME280;52661;51.364;6.054;2024-02-16T01:50:12;100656.41;;;12.08;100.00
65880;BME280;52661;51.364;6.054;2024-02-16T01:52:37;100649.03;;;12.09;100.00
65880;BME280;52661;51.364;6.054;2024-02-16T01:55:06;100648.66;;;12.10;100.00
65880;BME280;52661;51.364;6.054;2024-02-16T01:57:36;100638.97;;;12.06;100.00
65880;BME280;52661;51.364;6.054;2024-02-16T02:00:04;100638.59;;;12.04;100.00
65880;BME280;52661;51.364;6.054;2024-02-16T02:02:33;100623.84;;;12.01;100.00
65880;BME280;52661;51.364;6.054;2024-02-16T02:04:58;100625.81;;;12.01;100.00
65880;BME280;52661;51.364;6.054;2024-02-16T02:07:25;100629.28;;;12.01;100.00
65880;BME280;52661;51.364;6.054;2024-02-16T02:09:54;100624.22;;;12.03;100.00
65880;BME280;52661;51.364;6.054;2024-02-16T02:12:19;100625.34;;;12.06;100.00
65880;BME280;52661;51.364;6.054;2024-02-16T02:14:45;100619.13;;;12.05;100.00
65880;BME280;52661;51.364;6.054;2024-02-16T02:17:11;100623.38;;;12.10;100.00
65880;BME280;52661;51.364;6.054;2024-02-16T02:19:37;100614.84;;;12.11;100.00
65880;BME280;52661;51.364;6.054;2024-02-16T02:22:02;100610.16;;;12.08;100.00
65880;BME280;52661;51.364;6.054;2024-02-16T02:24:27;100615.19;;;12.13;100.00
65880;BME280;52661;51.364;6.054;2024-02-16T02:26:53;100618.31;;;12.12;100.00
65880;BME280;52661;51.364;6.054;2024-02-16T02:29:18;100610.16;;;12.12;100.00
65880;BME280;52661;51.364;6.054;2024-02-16T02:31:43;100617.91;;;12.13;100.00
65880;BME280;52661;51.364;6.054;2024-02-16T02:34:09;100615.19;;;12.13;100.00
65880;BME280;52661;51.364;6.054;2024-02-16T02:36:35;100614.81;;;12.15;100.00
65880;BME280;52661;51.364;6.054;2024-02-16T02:39:01;100609.38;;;12.15;100.00
65880;BME280;52661;51.364;6.054;2024-02-16T02:41:26;100616.00;;;12.10;100.00
65880;BME280;52661;51.364;6.054;2024-02-16T02:43:52;100607.44;;;12.08;100.00
65880;BME280;52661;51.364;6.054;2024-02-16T02:46:18;100605.94;;;12.07;100.00
65880;BME280;52661;51.364;6.054;2024-02-16T02:48:44;100600.47;;;12.11;100.00
65880;BME280;52661;51.364;6.054;2024-02-16T02:51:09;100593.50;;;12.06;100.00
65880;BME280;52661;51.364;6.054;2024-02-16T02:53:35;100593.47;;;12.10;100.00
65880;BME280;52661;51.364;6.054;2024-02-16T02:56:01;100588.00;;;12.13;100.00
65880;BME280;52661;51.364;6.054;2024-02-16T02:58:26;100589.91;;;12.16;100.00
65880;BME280;52661;51.364;6.054;2024-02-16T03:00:52;100588.78;;;12.14;100.00
65880;BME280;52661;51.364;6.054;2024-02-16T03:03:17;100588.78;;;12.14;100.00
65880;BME280;52661;51.364;6.054;2024-02-16T03:05:42;100585.66;;;12.15;100.00
65880;BME280;52661;51.364;6.054;2024-02-16T03:08:08;100577.09;;;12.13;100.00
65880;BME280;52661;51.364;6.054;2024-02-16T03:10:34;100577.50;;;12.12;100.00
65880;BME280;52661;51.364;6.054;2024-02-16T03:13:01;100574.03;;;12.11;100.00
65880;BME280;52661;51.364;6.054;2024-02-16T03:15:28;100579.81;;;12.13;100.00
65880;BME280;52661;51.364;6.054;2024-02-16T03:17:54;100575.53;;;12.16;100.00
65880;BME280;52661;51.364;6.054;2024-02-16T03:20:19;100566.97;;;12.17;100.00
65880;BME280;52661;51.364;6.054;2024-02-16T03:22:45;100580.19;;;12.19;100.00
65880;BME280;52661;51.364;6.054;2024-02-16T03:25:10;100579.38;;;12.22;100.00
65880;BME280;52661;51.364;6.054;2024-02-16T03:27:36;100571.59;;;12.20;100.00
65880;BME280;52661;51.364;6.054;2024-02-16T03:30:02;100574.72;;;12.22;100.00
65880;BME280;52661;51.364;6.054;2024-02-16T03:32:28;100567.28;;;12.23;100.00
65880;BME280;52661;51.364;6.054;2024-02-16T03:34:53;100575.13;;;12.17;100.00
65880;BME280;52661;51.364;6.054;2024-02-16T03:37:18;100567.34;;;12.19;100.00
65880;BME280;52661;51.364;6.054;2024-02-16T03:39:43;100568.16;;;12.13;100.00
65880;BME280;52661;51.364;6.054;2024-02-16T03:42:09;100574.38;;;12.13;100.00
65880;BME280;52661;51.364;6.054;2024-02-16T03:44:34;100573.22;;;12.14;100.00
65880;BME280;52661;51.364;6.054;2024-02-16T03:47:00;100575.56;;;12.12;100.00
65880;BME280;52661;51.364;6.054;2024-02-16T03:49:25;100567.03;;;12.10;100.00
65880;BME280;52661;51.364;6.054;2024-02-16T03:51:53;100567.06;;;12.07;100.00
65880;BME280;52661;51.364;6.054;2024-02-16T03:54:18;100570.94;;;12.06;100.00
65880;BME280;52661;51.364;6.054;2024-02-16T03:56:43;100574.88;;;12.01;100.00
65880;BME280;52661;51.364;6.054;2024-02-16T03:59:10;100574.09;;;12.04;100.00
65880;BME280;52661;51.364;6.054;2024-02-16T04:01:35;100574.88;;;12.01;100.00
65880;BME280;52661;51.364;6.054;2024-02-16T04:04:01;100574.84;;;12.05;100.00
65880;BME280;52661;51.364;6.054;2024-02-16T04:06:28;100584.19;;;12.04;100.00
65880;BME280;52661;51.364;6.054;2024-02-16T04:08:53;100585.00;;;12.01;100.00
65880;BME280;52661;51.364;6.054;2024-02-16T04:11:19;100586.97;;;11.97;100.00
65880;BME280;52661;51.364;6.054;2024-02-16T04:13:44;100584.25;;;11.97;100.00
65880;BME280;52661;51.364;6.054;2024-02-16T04:16:09;100574.16;;;11.97;100.00
65880;BME280;52661;51.364;6.054;2024-02-16T04:18:35;100577.25;;;11.96;100.00
65880;BME280;52661;51.364;6.054;2024-02-16T04:21:00;100588.09;;;11.99;100.00
65880;BME280;52661;51.364;6.054;2024-02-16T04:23:25;100580.34;;;11.98;100.00
65880;BME280;52661;51.364;6.054;2024-02-16T04:25:51;100578.78;;;12.00;100.00
65880;BME280;52661;51.364;6.054;2024-02-16T04:28:16;100586.94;;;12.00;100.00
65880;BME280;52661;51.364;6.054;2024-02-16T04:30:43;100583.81;;;12.02;100.00
65880;BME280;52661;51.364;6.054;2024-02-16T04:33:09;100578.38;;;12.02;100.00
65880;BME280;52661;51.364;6.054;2024-02-16T04:35:34;100583.03;;;12.01;100.00
65880;BME280;52661;51.364;6.054;2024-02-16T04:37:59;100585.38;;;11.99;100.00
65880;BME280;52661;51.364;6.054;2024-02-16T04:40:25;100590.81;;;12.03;100.00
65880;BME280;52661;51.364;6.054;2024-02-16T04:42:51;100588.09;;;11.99;100.00
65880;BME280;52661;51.364;6.054;2024-02-16T04:45:17;100592.00;;;11.98;100.00
65880;BME280;52661;51.364;6.054;2024-02-16T04:47:42;100588.91;;;11.96;100.00
65880;BME280;52661;51.364;6.054;2024-02-16T04:50:08;100587.00;;;11.93;100.00
65880;BME280;52661;51.364;6.054;2024-02-16T04:52:37;100596.31;;;11.92;100.00
65880;BME280;52661;51.364;6.054;2024-02-16T04:55:04;100594.41;;;11.89;100.00
65880;BME280;52661;51.364;6.054;2024-02-16T04:57:30;100589.75;;;11.90;100.00
65880;BME280;52661;51.364;6.054;2024-02-16T04:59:56;100596.31;;;11.92;100.00
65880;BME280;52661;51.364;6.054;2024-02-16T05:02:21;100594.41;;;11.89;100.00
65880;BME280;52661;51.364;6.054;2024-02-16T05:04:47;100588.19;;;11.89;100.00
65880;BME280;52661;51.364;6.054;2024-02-16T05:07:12;100581.19;;;11.88;100.00
65880;BME280;52661;51.364;6.054;2024-02-16T05:09:37;100583.13;;;11.87;100.00
65880;BME280;52661;51.364;6.054;2024-02-16T05:12:05;100573.06;;;11.84;100.00
65880;BME280;52661;51.364;6.054;2024-02-16T05:14:30;100585.09;;;11.87;100.00
65880;BME280;52661;51.364;6.054;2024-02-16T05:16:55;100583.16;;;11.83;100.00
65880;BME280;52661;51.364;6.054;2024-02-16T05:19:21;100576.97;;;11.79;100.00
65880;BME280;52661;51.364;6.054;2024-02-16T05:21:46;100587.81;;;11.83;100.00
65880;BME280;52661;51.364;6.054;2024-02-16T05:24:11;100584.75;;;11.81;100.00
65880;BME280;52661;51.364;6.054;2024-02-16T05:26:37;100584.38;;;11.79;100.00
65880;BME280;52661;51.364;6.054;2024-02-16T05:29:02;100585.09;;;11.83;100.00
65880;BME280;52661;51.364;6.054;2024-02-16T05:31:28;100583.94;;;11.84;100.00
65880;BME280;52661;51.364;6.054;2024-02-16T05:33:53;100582.78;;;11.85;100.00
65880;BME280;52661;51.364;6.054;2024-02-16T05:36:19;100588.59;;;11.87;100.00
65880;BME280;52661;51.364;6.054;2024-02-16T05:38:46;100581.19;;;11.88;100.00
65880;BME280;52661;51.364;6.054;2024-02-16T05:41:11;100583.13;;;11.87;100.00
65880;BME280;52661;51.364;6.054;2024-02-16T05:43:37;100582.34;;;11.94;100.00
65880;BME280;52661;51.364;6.054;2024-02-16T05:46:05;100588.53;;;11.94;100.00
65880;BME280;52661;51.364;6.054;2024-02-16T05:48:33;100579.16;;;11.99;100.00
65880;BME280;52661;51.364;6.054;2024-02-16T05:51:03;100583.06;;;11.98;100.00
65880;BME280;52661;51.364;6.054;2024-02-16T05:53:30;100595.09;;;12.00;100.00
65880;BME280;52661;51.364;6.054;2024-02-16T05:55:56;100591.13;;;12.08;100.00
65880;BME280;52661;51.364;6.054;2024-02-16T05:58:21;100595.34;;;12.16;100.00
65880;BME280;52661;51.364;6.054;2024-02-16T06:00:48;100593.78;;;12.19;100.00
65880;BME280;52661;51.364;6.054;2024-02-16T06:03:14;100596.06;;;12.24;100.00
65880;BME280;52661;51.364;6.054;2024-02-16T06:05:39;100596.03;;;12.27;100.00
65880;BME280;52661;51.364;6.054;2024-02-16T06:08:06;100590.19;;;12.29;100.00
65880;BME280;52661;51.364;6.054;2024-02-16T06:10:32;100589.78;;;12.30;100.00
65880;BME280;52661;51.364;6.054;2024-02-16T06:12:58;100599.47;;;12.35;100.00
65880;BME280;52661;51.364;6.054;2024-02-16T06:15:23;100604.84;;;12.42;100.00
65880;BME280;52661;51.364;6.054;2024-02-16T06:17:49;100595.91;;;12.42;100.00
65880;BME280;52661;51.364;6.054;2024-02-16T06:20:15;100604.84;;;12.42;100.00
65880;BME280;52661;51.364;6.054;2024-02-16T06:22:41;100605.22;;;12.44;100.00
65880;BME280;52661;51.364;6.054;2024-02-16T06:25:07;100602.09;;;12.46;100.00
65880;BME280;52661;51.364;6.054;2024-02-16T06:27:33;100600.53;;;12.45;100.00
65880;BME280;52661;51.364;6.054;2024-02-16T06:29:58;100622.31;;;12.45;100.00
65880;BME280;52661;51.364;6.054;2024-02-16T06:32:23;100624.63;;;12.46;100.00
65880;BME280;52661;51.364;6.054;2024-02-16T06:34:49;100626.97;;;12.48;100.00
65880;BME280;52661;51.364;6.054;2024-02-16T06:37:14;100626.97;;;12.48;100.00
65880;BME280;52661;51.364;6.054;2024-02-16T06:39:40;100628.91;;;12.47;100.00
65880;BME280;52661;51.364;6.054;2024-02-16T06:42:05;100637.47;;;12.46;100.00
65880;BME280;52661;51.364;6.054;2024-02-16T06:44:31;100636.66;;;12.49;100.00
65880;BME280;52661;51.364;6.054;2024-02-16T06:46:56;100640.19;;;12.46;100.00
65880;BME280;52661;51.364;6.054;2024-02-16T06:49:22;100649.50;;;12.48;100.00
65880;BME280;52661;51.364;6.054;2024-02-16T06:51:47;100651.81;;;12.50;100.00
65880;BME280;52661;51.364;6.054;2024-02-16T06:54:12;100663.03;;;12.55;100.00
65880;BME280;52661;51.364;6.054;2024-02-16T06:56:38;100659.09;;;12.63;100.00
65880;BME280;52661;51.364;6.054;2024-02-16T06:59:03;100654.41;;;12.64;100.00
65880;BME280;52661;51.364;6.054;2024-02-16T07:01:28;100659.06;;;12.67;100.00
65880;BME280;52661;51.364;6.054;2024-02-16T07:03:54;100668.38;;;12.69;100.00
65880;BME280;52661;51.364;6.054;2024-02-16T07:06:19;100674.19;;;12.71;100.00
65880;BME280;52661;51.364;6.054;2024-02-16T07:08:45;100683.91;;;12.72;100.00
65880;BME280;52661;51.364;6.054;2024-02-16T07:11:10;100677.63;;;12.79;100.00
65880;BME280;52661;51.364;6.054;2024-02-16T07:13:40;100679.88;;;12.88;100.00
65880;BME280;52661;51.364;6.054;2024-02-16T07:16:06;100684.56;;;12.87;100.00
65880;BME280;52661;51.364;6.054;2024-02-16T07:18:34;100670.50;;;12.89;100.00
65880;BME280;52661;51.364;6.054;2024-02-16T07:21:01;100675.53;;;12.94;100.00
65880;BME280;52661;51.364;6.054;2024-02-16T07:23:26;100683.63;;;13.01;100.00
65880;BME280;52661;51.364;6.054;2024-02-16T07:25:52;100685.91;;;13.09;100.00
65880;BME280;52661;51.364;6.054;2024-02-16T07:28:21;100687.84;;;13.09;100.00
65880;BME280;52661;51.364;6.054;2024-02-16T07:30:47;100701.41;;;13.16;100.00
65880;BME280;52661;51.364;6.054;2024-02-16T07:33:12;100707.25;;;13.14;100.00
65880;BME280;52661;51.364;6.054;2024-02-16T07:35:37;100713.47;;;13.15;100.00
65880;BME280;52661;51.364;6.054;2024-02-16T07:38:04;100712.63;;;13.21;100.00
65880;BME280;52661;51.364;6.054;2024-02-16T07:40:29;100720.00;;;13.24;100.00
65880;BME280;52661;51.364;6.054;2024-02-16T07:42:56;100717.22;;;13.28;100.00
65880;BME280;52661;51.364;6.054;2024-02-16T07:45:21;100713.31;;;13.29;100.00
65880;BME280;52661;51.364;6.054;2024-02-16T07:47:47;100723.75;;;13.38;100.00
65880;BME280;52661;51.364;6.054;2024-02-16T07:50:12;100716.31;;;13.42;100.00
65880;BME280;52661;51.364;6.054;2024-02-16T07:52:39;100724.53;;;13.38;100.00
65880;BME280;52661;51.364;6.054;2024-02-16T07:55:05;100728.34;;;13.44;100.00
65880;BME280;52661;51.364;6.054;2024-02-16T07:57:31;100730.66;;;13.46;100.00
65880;BME280;52661;51.364;6.054;2024-02-16T07:59:56;100728.38;;;13.41;100.00
65880;BME280;52661;51.364;6.054;2024-02-16T08:02:22;100734.53;;;13.48;100.00
65880;BME280;52661;51.364;6.054;2024-02-16T08:04:48;100731.38;;;13.50;100.00
65880;BME280;52661;51.364;6.054;2024-02-16T08:07:13;100730.22;;;13.51;100.00
65880;BME280;52661;51.364;6.054;2024-02-16T08:09:39;100736.47;;;13.48;100.00
65880;BME280;52661;51.364;6.054;2024-02-16T08:12:04;100744.72;;;13.44;100.00
65880;BME280;52661;51.364;6.054;2024-02-16T08:14:32;100741.50;;;13.49;100.00
65880;BME280;52661;51.364;6.054;2024-02-16T08:16:58;100752.81;;;13.51;100.00
65880;BME280;52661;51.364;6.054;2024-02-16T08:19:32;100753.59;;;13.52;100.00
65880;BME280;52661;51.364;6.054;2024-02-16T08:21:58;100755.81;;;13.60;100.00
65880;BME280;52661;51.364;6.054;2024-02-16T08:24:23;100767.91;;;13.59;100.00
65880;BME280;52661;51.364;6.054;2024-02-16T08:26:49;100762.47;;;13.59;100.00
65880;BME280;52661;51.364;6.054;2024-02-16T08:29:14;100753.50;;;13.59;100.00
65880;BME280;52661;51.364;6.054;2024-02-16T08:31:39;100771.03;;;13.58;100.00
65880;BME280;52661;51.364;6.054;2024-02-16T08:34:05;100779.19;;;13.61;100.00
65880;BME280;52661;51.364;6.054;2024-02-16T08:36:32;100779.91;;;13.65;100.00
65880;BME280;52661;51.364;6.054;2024-02-16T08:38:59;100779.91;;;13.65;100.00
65880;BME280;52661;51.364;6.054;2024-02-16T08:41:24;100771.38;;;13.63;100.00
65880;BME280;52661;51.364;6.054;2024-02-16T08:43:50;100781.50;;;13.63;100.00
65880;BME280;52661;51.364;6.054;2024-02-16T08:46:15;100781.50;;;13.63;100.00
65880;BME280;52661;51.364;6.054;2024-02-16T08:48:41;100786.88;;;13.70;100.00
65880;BME280;52661;51.364;6.054;2024-02-16T08:51:06;100794.69;;;13.68;100.00
65880;BME280;52661;51.364;6.054;2024-02-16T08:53:31;100792.28;;;13.73;100.00
65880;BME280;52661;51.364;6.054;2024-02-16T08:55:57;100802.03;;;13.71;100.00
65880;BME280;52661;51.364;6.054;2024-02-16T08:58:22;100800.88;;;13.72;100.00
65880;BME280;52661;51.364;6.054;2024-02-16T09:00:48;100798.56;;;13.70;100.00
65880;BME280;52661;51.364;6.054;2024-02-16T09:03:15;100799.75;;;13.69;100.00
65880;BME280;52661;51.364;6.054;2024-02-16T09:05:41;100813.69;;;13.75;100.00
65880;BME280;52661;51.364;6.054;2024-02-16T09:08:08;100812.53;;;13.76;100.00
65880;BME280;52661;51.364;6.054;2024-02-16T09:10:34;100815.97;;;13.80;100.00
65880;BME280;52661;51.364;6.054;2024-02-16T09:13:00;100826.16;;;13.76;100.00
65880;BME280;52661;51.364;6.054;2024-02-16T09:15:25;100819.88;;;13.79;100.00
65880;BME280;52661;51.364;6.054;2024-02-16T09:17:50;100822.56;;;13.82;100.00
65880;BME280;52661;51.364;6.054;2024-02-16T09:20:16;100819.44;;;13.84;100.00
65880;BME280;52661;51.364;6.054;2024-02-16T09:22:47;100831.56;;;13.79;100.00
65880;BME280;52661;51.364;6.054;2024-02-16T09:25:12;100825.34;;;13.79;100.00
65880;BME280;52661;51.364;6.054;2024-02-16T09:27:39;100828.50;;;13.77;100.00
65880;BME280;52661;51.364;6.054;2024-02-16T09:30:06;100826.13;;;13.79;100.00
65880;BME280;52661;51.364;6.054;2024-02-16T09:32:32;100832.00;;;13.78;100.00
65880;BME280;52661;51.364;6.054;2024-02-16T09:34:57;100836.69;;;13.77;100.00
65880;BME280;52661;51.364;6.054;2024-02-16T09:37:22;100836.28;;;13.75;100.00
65880;BME280;52661;51.364;6.054;2024-02-16T09:39:48;100840.16;;;13.82;100.00
65880;BME280;52661;51.364;6.054;2024-02-16T09:42:13;100850.63;;;13.83;100.00
65880;BME280;52661;51.364;6.054;2024-02-16T09:44:40;100850.59;;;13.87;100.00
65880;BME280;52661;51.364;6.054;2024-02-16T09:47:07;100849.38;;;13.91;100.00
65880;BME280;52661;51.364;6.054;2024-02-16T09:49:36;100856.00;;;13.90;100.00
65880;BME280;52661;51.364;6.054;2024-02-16T09:52:02;100852.88;;;13.92;100.00
65880;BME280;52661;51.364;6.054;2024-02-16T09:54:34;100865.66;;;13.98;100.00
65880;BME280;52661;51.364;6.054;2024-02-16T09:56:59;100871.13;;;13.98;100.00
65880;BME280;52661;51.364;6.054;2024-02-16T09:59:25;100875.81;;;13.98;100.00
65880;BME280;52661;51.364;6.054;2024-02-16T10:01:59;100874.59;;;14.02;100.00
65880;BME280;52661;51.364;6.054;2024-02-16T10:04:25;100875.75;;;14.01;100.00
65880;BME280;52661;51.364;6.054;2024-02-16T10:06:50;100891.78;;;13.99;100.00
65880;BME280;52661;51.364;6.054;2024-02-16T10:09:26;100880.44;;;14.01;100.00
65880;BME280;52661;51.364;6.054;2024-02-16T10:11:54;100880.03;;;14.02;100.00
65880;BME280;52661;51.364;6.054;2024-02-16T10:14:19;100897.56;;;14.05;100.00
65880;BME280;52661;51.364;6.054;2024-02-16T10:16:47;100910.41;;;14.04;100.00
65880;BME280;52661;51.364;6.054;2024-02-16T10:19:13;100899.88;;;14.06;100.00
65880;BME280;52661;51.364;6.054;2024-02-16T10:21:39;100911.59;;;14.07;100.00
65880;BME280;52661;51.364;6.054;2024-02-16T10:24:09;100910.00;;;14.09;100.00
65880;BME280;52661;51.364;6.054;2024-02-16T10:26:35;100923.63;;;14.09;100.00
65880;BME280;52661;51.364;6.054;2024-02-16T10:29:06;100924.03;;;14.08;100.00
65880;BME280;52661;51.364;6.054;2024-02-16T10:31:32;100924.41;;;14.10;100.00
65880;BME280;52661;51.364;6.054;2024-02-16T10:34:03;100934.88;;;14.15;100.00
65880;BME280;52661;51.364;6.054;2024-02-16T10:36:34;100948.16;;;14.13;100.00
65880;BME280;52661;51.364;6.054;2024-02-16T10:39:01;100941.94;;;14.12;100.00
65880;BME280;52661;51.364;6.054;2024-02-16T10:41:33;100939.19;;;14.12;100.00
65880;BME280;52661;51.364;6.054;2024-02-16T10:44:00;100945.47;;;14.09;100.00
65880;BME280;52661;51.364;6.054;2024-02-16T10:46:27;100940.84;;;14.06;100.00
65880;BME280;52661;51.364;6.054;2024-02-16T10:48:52;100952.91;;;14.05;100.00
65880;BME280;52661;51.364;6.054;2024-02-16T10:51:42;100950.16;;;14.09;100.00
65880;BME280;52661;51.364;6.054;2024-02-16T10:54:06;100954.00;;;14.11;100.00
65880;BME280;52661;51.364;6.054;2024-02-16T10:56:34;100941.56;;;14.10;100.00
65880;BME280;52661;51.364;6.054;2024-02-16T10:59:04;100958.31;;;14.12;100.00
65880;BME280;52661;51.364;6.054;2024-02-16T11:01:41;100955.97;;;14.11;100.00
65880;BME280;52661;51.364;6.054;2024-02-16T11:04:08;100956.75;;;14.11;100.00
65880;BME280;52661;51.364;6.054;2024-02-16T11:06:52;100963.41;;;14.10;100.00
65880;BME280;52661;51.364;6.054;2024-02-16T11:09:34;100964.56;;;14.09;100.00
65880;BME280;52661;51.364;6.054;2024-02-16T11:12:01;100977.44;;;14.09;100.00
65880;BME280;52661;51.364;6.054;2024-02-16T11:14:43;100975.88;;;14.08;100.00
65880;BME280;52661;51.364;6.054;2024-02-16T11:17:10;100969.28;;;14.05;100.00
65880;BME280;52661;51.364;6.054;2024-02-16T11:19:37;100973.63;;;14.03;100.00
65880;BME280;52661;51.364;6.054;2024-02-16T11:22:06;100982.94;;;14.05;100.00
65880;BME280;52661;51.364;6.054;2024-02-16T11:24:36;100980.69;;;13.97;100.00
65880;BME280;52661;51.364;6.054;2024-02-16T11:27:05;100988.53;;;13.91;100.00
65880;BME280;52661;51.364;6.054;2024-02-16T11:29:38;100988.19;;;13.86;100.00
65880;BME280;52661;51.364;6.054;2024-02-16T11:32:04;100990.94;;;13.82;100.00
65880;BME280;52661;51.364;6.054;2024-02-16T11:34:31;100983.16;;;13.84;100.00
65880;BME280;52661;51.364;6.054;2024-02-16T11:36:58;100979.69;;;13.80;100.00
65880;BME280;52661;51.364;6.054;2024-02-16T11:39:25;100985.09;;;13.84;100.00
65880;BME280;52661;51.364;6.054;2024-02-16T11:42:08;100981.19;;;13.85;100.00
65880;BME280;52661;51.364;6.054;2024-02-16T11:44:35;100987.44;;;13.85;100.00
65880;BME280;52661;51.364;6.054;2024-02-16T11:47:02;100989.38;;;13.85;100.00
65880;BME280;52661;51.364;6.054;2024-02-16T11:49:31;100999.91;;;13.82;100.00
65880;BME280;52661;51.364;6.054;2024-02-16T11:51:59;101001.09;;;13.82;100.00
65880;BME280;52661;51.364;6.054;2024-02-16T11:54:24;100999.16;;;13.78;100.00
65880;BME280;52661;51.364;6.054;2024-02-16T11:56:51;101001.13;;;13.78;100.00
65880;BME280;52661;51.364;6.054;2024-02-16T11:59:18;100998.41;;;13.78;100.00
65880;BME280;52661;51.364;6.054;2024-02-16T12:01:50;100994.50;;;13.75;100.00
65880;BME280;52661;51.364;6.054;2024-02-16T12:04:21;100999.19;;;13.75;100.00
65880;BME280;52661;51.364;6.054;2024-02-16T12:06:46;101002.72;;;13.72;100.00
65880;BME280;52661;51.364;6.054;2024-02-16T12:09:15;100995.31;;;13.72;100.00
65880;BME280;52661;51.364;6.054;2024-02-16T12:11:41;101012.09;;;13.71;100.00
65880;BME280;52661;51.364;6.054;2024-02-16T12:14:07;101014.06;;;13.70;100.00
65880;BME280;52661;51.364;6.054;2024-02-16T12:16:32;101014.81;;;13.71;100.00
65880;BME280;52661;51.364;6.054;2024-02-16T12:19:07;101009.34;;;13.71;100.00
65880;BME280;52661;51.364;6.054;2024-02-16T12:21:33;101017.53;;;13.71;100.00
65880;BME280;52661;51.364;6.054;2024-02-16T12:23:59;101018.75;;;13.70;100.00
65880;BME280;52661;51.364;6.054;2024-02-16T12:26:24;101025.34;;;13.69;100.00
65880;BME280;52661;51.364;6.054;2024-02-16T12:28:49;101019.91;;;13.69;100.00
65880;BME280;52661;51.364;6.054;2024-02-16T12:31:19;101025.75;;;13.67;100.00
65880;BME280;52661;51.364;6.054;2024-02-16T12:33:45;101033.94;;;13.67;100.00
65880;BME280;52661;51.364;6.054;2024-02-16T12:36:10;101035.91;;;13.67;100.00